createdAt,value
2018-07-25T00:00:04.693Z,21.10
2018-07-25T00:01:06.352Z,21.10
2018-07-25T00:02:04.731Z,21.10
2018-07-25T00:03:05.310Z,21.10
2018-07-25T00:04:05.054Z,21.10
2018-07-25T00:05:05.489Z,21.10
2018-07-25T00:06:05.282Z,21.00
2018-07-25T00:07:05.203Z,21.00
2018-07-25T00:08:05.491Z,21.00
2018-07-25T00:09:05.011Z,21.00
2018-07-25T00:10:05.521Z,21.00
2018-07-25T00:11:05.426Z,20.90
2018-07-25T00:12:05.331Z,20.90
2018-07-25T00:13:05.316Z,20.90
2018-07-25T00:14:05.422Z,20.90
2018-07-25T00:15:04.751Z,20.90
2018-07-25T00:16:04.882Z,20.80
2018-07-25T00:17:05.156Z,20.80
2018-07-25T00:18:04.877Z,20.80
2018-07-25T00:19:04.868Z,20.80
2018-07-25T00:20:05.090Z,20.80
2018-07-25T00:21:04.687Z,20.80
2018-07-25T00:22:05.102Z,20.80
2018-07-25T00:23:04.787Z,20.70
2018-07-25T00:24:05.269Z,20.70
2018-07-25T00:25:05.265Z,20.70
2018-07-25T00:26:05.248Z,20.70
2018-07-25T00:27:04.629Z,20.60
2018-07-25T00:28:04.706Z,20.60
2018-07-25T00:29:05.471Z,20.60
2018-07-25T00:30:05.248Z,20.60
2018-07-25T00:31:05.193Z,20.60
2018-07-25T00:32:04.681Z,20.60
2018-07-25T00:33:04.637Z,20.60
2018-07-25T00:34:05.422Z,20.50
2018-07-25T00:35:04.993Z,20.50
2018-07-25T00:36:05.012Z,20.50
2018-07-25T00:37:04.959Z,20.50
2018-07-25T00:38:05.445Z,20.50
2018-07-25T00:39:04.762Z,20.40
2018-07-25T00:40:05.098Z,20.40
2018-07-25T00:41:05.263Z,20.40
2018-07-25T00:42:05.275Z,20.40
2018-07-25T00:43:05.212Z,20.40
2018-07-25T00:44:04.866Z,20.40
2018-07-25T00:45:05.036Z,20.40
2018-07-25T00:46:05.621Z,20.40
2018-07-25T00:47:04.843Z,20.40
2018-07-25T00:48:04.599Z,20.30
2018-07-25T00:49:05.266Z,20.30
2018-07-25T00:50:05.012Z,20.30
2018-07-25T00:51:04.982Z,20.30
2018-07-25T00:52:04.586Z,20.30
2018-07-25T00:53:04.748Z,20.30
2018-07-25T00:54:04.695Z,20.30
2018-07-25T00:55:04.725Z,20.30
2018-07-25T00:56:04.661Z,20.30
2018-07-25T00:57:05.182Z,20.30
2018-07-25T00:58:04.948Z,20.30
2018-07-25T00:59:04.767Z,20.20
2018-07-25T01:00:04.670Z,20.20
2018-07-25T01:01:04.634Z,20.20
2018-07-25T01:02:05.179Z,20.20
2018-07-25T01:03:04.852Z,20.20
2018-07-25T01:04:05.576Z,20.10
2018-07-25T01:05:04.729Z,20.10
2018-07-25T01:06:04.912Z,20.10
2018-07-25T01:07:05.347Z,20.00
2018-07-25T01:08:05.520Z,20.00
2018-07-25T01:09:05.620Z,20.00
2018-07-25T01:10:05.319Z,20.00
2018-07-25T01:11:09.943Z,20.00
2018-07-25T01:12:04.870Z,19.90
2018-07-25T01:13:05.508Z,19.90
2018-07-25T01:14:05.210Z,19.90
2018-07-25T01:15:05.134Z,19.90
2018-07-25T01:16:05.069Z,19.80
2018-07-25T01:17:04.843Z,19.80
2018-07-25T01:18:04.696Z,19.80
2018-07-25T01:19:05.470Z,19.80
2018-07-25T01:20:04.614Z,19.80
2018-07-25T01:21:05.004Z,19.80
2018-07-25T01:22:05.517Z,19.80
2018-07-25T01:23:04.850Z,19.70
2018-07-25T01:24:04.664Z,19.70
2018-07-25T01:25:05.476Z,19.70
2018-07-25T01:26:05.146Z,19.70
2018-07-25T01:27:04.763Z,19.70
2018-07-25T01:28:05.386Z,19.70
2018-07-25T01:29:04.715Z,19.70
2018-07-25T01:30:04.578Z,19.70
2018-07-25T01:31:05.527Z,19.70
2018-07-25T01:32:05.177Z,19.70
2018-07-25T01:33:04.770Z,19.70
2018-07-25T01:34:04.828Z,19.70
2018-07-25T01:35:05.602Z,19.70
2018-07-25T01:36:05.353Z,19.60
2018-07-25T01:37:05.727Z,19.60
2018-07-25T01:38:05.291Z,19.70
2018-07-25T01:39:04.727Z,19.70
2018-07-25T01:40:04.988Z,19.70
2018-07-25T01:41:04.786Z,19.70
2018-07-25T01:42:05.388Z,19.70
2018-07-25T01:43:05.411Z,19.70
2018-07-25T01:44:05.406Z,19.70
2018-07-25T01:45:05.034Z,19.70
2018-07-25T01:46:04.727Z,19.70
2018-07-25T01:47:04.999Z,19.70
2018-07-25T01:48:05.058Z,19.70
2018-07-25T01:49:05.167Z,19.70
2018-07-25T01:50:04.904Z,19.60
2018-07-25T01:51:05.537Z,19.60
2018-07-25T01:52:05.338Z,19.60
2018-07-25T01:53:04.961Z,19.60
2018-07-25T01:54:04.921Z,19.60
2018-07-25T01:55:04.652Z,19.60
2018-07-25T01:56:05.495Z,19.60
2018-07-25T01:57:05.159Z,19.60
2018-07-25T01:58:05.002Z,19.60
2018-07-25T01:59:05.097Z,19.60
2018-07-25T02:00:04.572Z,19.60
2018-07-25T02:01:08.058Z,19.50
2018-07-25T02:02:04.909Z,19.50
2018-07-25T02:03:05.507Z,19.50
2018-07-25T02:04:05.070Z,19.50
2018-07-25T02:05:05.539Z,19.50
2018-07-25T02:06:05.586Z,19.50
2018-07-25T02:07:05.227Z,19.40
2018-07-25T02:08:05.556Z,19.40
2018-07-25T02:09:05.067Z,19.40
2018-07-25T02:10:04.674Z,19.40
2018-07-25T02:11:05.361Z,19.40
2018-07-25T02:12:05.119Z,19.40
2018-07-25T02:13:05.144Z,19.40
2018-07-25T02:14:04.734Z,19.30
2018-07-25T02:15:04.961Z,19.30
2018-07-25T02:16:05.025Z,19.30
2018-07-25T02:17:04.980Z,19.30
2018-07-25T02:18:05.367Z,19.30
2018-07-25T02:19:05.335Z,19.30
2018-07-25T02:20:05.401Z,19.20
2018-07-25T02:21:05.321Z,19.20
2018-07-25T02:22:04.952Z,19.20
2018-07-25T02:23:05.348Z,19.20
2018-07-25T02:24:05.441Z,19.20
2018-07-25T02:25:04.619Z,19.20
2018-07-25T02:26:04.976Z,19.20
2018-07-25T02:27:04.706Z,19.20
2018-07-25T02:28:04.820Z,19.20
2018-07-25T02:29:05.534Z,19.10
2018-07-25T02:30:04.909Z,19.10
2018-07-25T02:31:05.410Z,19.10
2018-07-25T02:32:04.754Z,19.10
2018-07-25T02:33:04.552Z,19.10
2018-07-25T02:34:05.037Z,19.10
2018-07-25T02:35:05.008Z,19.00
2018-07-25T02:36:04.534Z,19.00
2018-07-25T02:37:05.458Z,19.00
2018-07-25T02:38:05.412Z,19.00
2018-07-25T02:39:05.179Z,19.00
2018-07-25T02:40:04.938Z,19.00
2018-07-25T02:41:04.833Z,18.90
2018-07-25T02:42:04.587Z,18.90
2018-07-25T02:43:05.139Z,18.90
2018-07-25T02:44:04.980Z,18.90
2018-07-25T02:45:05.060Z,18.90
2018-07-25T02:46:04.740Z,18.90
2018-07-25T02:47:04.755Z,18.90
2018-07-25T02:48:04.937Z,18.90
2018-07-25T02:49:05.301Z,18.90
2018-07-25T02:50:04.975Z,18.90
2018-07-25T02:51:04.955Z,18.90
2018-07-25T02:52:05.325Z,18.90
2018-07-25T02:53:05.097Z,18.90
2018-07-25T02:54:05.409Z,18.90
2018-07-25T02:55:05.112Z,18.80
2018-07-25T02:56:05.208Z,18.90
2018-07-25T02:57:04.751Z,18.80
2018-07-25T02:58:04.854Z,18.80
2018-07-25T02:59:05.261Z,18.80
2018-07-25T03:00:05.253Z,18.80
2018-07-25T03:01:04.906Z,18.80
2018-07-25T03:02:04.929Z,18.80
2018-07-25T03:03:05.385Z,18.70
2018-07-25T03:04:05.476Z,18.70
2018-07-25T03:05:05.490Z,18.70
2018-07-25T03:06:05.455Z,18.70
2018-07-25T03:07:05.662Z,18.70
2018-07-25T03:08:05.068Z,18.70
2018-07-25T03:09:04.710Z,18.70
2018-07-25T03:10:05.435Z,18.70
2018-07-25T03:11:05.390Z,18.60
2018-07-25T03:12:05.351Z,18.70
2018-07-25T03:13:05.567Z,18.60
2018-07-25T03:14:05.337Z,18.60
2018-07-25T03:15:05.136Z,18.60
2018-07-25T03:16:04.871Z,18.60
2018-07-25T03:17:05.363Z,18.60
2018-07-25T03:18:04.818Z,18.60
2018-07-25T03:19:05.435Z,18.60
2018-07-25T03:20:05.348Z,18.60
2018-07-25T03:21:05.505Z,18.60
2018-07-25T03:22:05.018Z,18.60
2018-07-25T03:23:05.553Z,18.60
2018-07-25T03:24:04.686Z,18.60
2018-07-25T03:25:05.311Z,18.60
2018-07-25T03:26:05.215Z,18.60
2018-07-25T03:27:05.155Z,18.60
2018-07-25T03:28:04.978Z,18.60
2018-07-25T03:29:10.221Z,18.60
2018-07-25T03:30:05.369Z,18.60
2018-07-25T03:31:04.968Z,18.50
2018-07-25T03:32:05.300Z,18.50
2018-07-25T03:33:05.016Z,18.50
2018-07-25T03:34:10.235Z,18.50
2018-07-25T03:35:05.188Z,18.40
2018-07-25T03:36:05.366Z,18.40
2018-07-25T03:37:05.366Z,18.40
2018-07-25T03:38:05.189Z,18.40
2018-07-25T03:39:05.197Z,18.30
2018-07-25T03:40:04.817Z,18.30
2018-07-25T03:41:04.626Z,18.30
2018-07-25T03:42:05.054Z,18.30
2018-07-25T03:43:05.449Z,18.30
2018-07-25T03:44:04.899Z,18.30
2018-07-25T03:45:05.337Z,18.30
2018-07-25T03:46:04.963Z,18.30
2018-07-25T03:47:05.354Z,18.30
2018-07-25T03:48:05.180Z,18.30
2018-07-25T03:49:05.479Z,18.30
2018-07-25T03:50:04.982Z,18.30
2018-07-25T03:51:04.804Z,18.30
2018-07-25T03:52:04.858Z,18.30
2018-07-25T03:53:05.352Z,18.30
2018-07-25T03:54:05.523Z,18.30
2018-07-25T03:55:04.716Z,18.30
2018-07-25T03:56:04.607Z,18.40
2018-07-25T03:57:05.304Z,18.40
2018-07-25T03:58:04.975Z,18.40
2018-07-25T03:59:05.450Z,18.30
2018-07-25T04:00:05.376Z,18.40
2018-07-25T04:01:05.212Z,18.30
2018-07-25T04:02:10.219Z,18.30
2018-07-25T04:03:04.713Z,18.30
2018-07-25T04:04:05.360Z,18.30
2018-07-25T04:05:05.376Z,18.30
2018-07-25T04:06:05.269Z,18.30
2018-07-25T04:07:04.992Z,18.40
2018-07-25T04:08:05.025Z,18.40
2018-07-25T04:09:05.022Z,18.40
2018-07-25T04:10:05.567Z,18.50
2018-07-25T04:11:05.401Z,18.50
2018-07-25T04:12:04.979Z,18.60
2018-07-25T04:13:04.747Z,18.60
2018-07-25T04:14:05.527Z,18.60
2018-07-25T04:15:05.162Z,18.60
2018-07-25T04:16:05.098Z,18.60
2018-07-25T04:17:05.191Z,18.70
2018-07-25T04:18:06.130Z,18.80
2018-07-25T04:19:05.270Z,18.90
2018-07-25T04:20:05.234Z,19.00
2018-07-25T04:21:04.800Z,19.10
2018-07-25T04:22:05.260Z,19.20
2018-07-25T04:23:05.045Z,19.30
2018-07-25T04:24:04.729Z,19.50
2018-07-25T04:25:05.448Z,19.60
2018-07-25T04:26:05.324Z,19.80
2018-07-25T04:27:04.671Z,19.90
2018-07-25T04:28:05.331Z,20.00
2018-07-25T04:29:05.376Z,20.10
2018-07-25T04:30:05.296Z,20.30
2018-07-25T04:31:05.281Z,20.40
2018-07-25T04:32:05.120Z,20.50
2018-07-25T04:33:04.905Z,20.70
2018-07-25T04:34:04.920Z,20.80
2018-07-25T04:35:04.918Z,21.00
2018-07-25T04:36:04.789Z,21.10
2018-07-25T04:37:04.896Z,21.30
2018-07-25T04:38:05.274Z,21.40
2018-07-25T04:39:06.053Z,21.50
2018-07-25T04:40:05.529Z,21.60
2018-07-25T04:41:05.365Z,21.70
2018-07-25T04:42:04.878Z,21.90
2018-07-25T04:43:05.639Z,22.00
2018-07-25T04:44:04.840Z,22.10
2018-07-25T04:45:04.742Z,22.20
2018-07-25T04:46:05.522Z,22.40
2018-07-25T04:47:05.012Z,22.50
2018-07-25T04:48:05.022Z,22.60
2018-07-25T04:49:05.121Z,22.80
2018-07-25T04:50:05.405Z,22.90
2018-07-25T04:51:05.319Z,23.00
2018-07-25T04:52:04.934Z,23.20
2018-07-25T04:53:05.300Z,23.30
2018-07-25T04:54:04.828Z,23.40
2018-07-25T04:55:04.812Z,23.50
2018-07-25T04:56:04.829Z,23.60
2018-07-25T04:57:04.581Z,23.70
2018-07-25T04:58:05.305Z,23.90
2018-07-25T04:59:04.655Z,24.00
2018-07-25T05:00:05.489Z,24.10
2018-07-25T05:01:05.396Z,24.20
2018-07-25T05:02:04.807Z,24.30
2018-07-25T05:03:04.585Z,24.40
2018-07-25T05:04:04.557Z,24.50
2018-07-25T05:05:04.899Z,24.60
2018-07-25T05:06:04.788Z,24.70
2018-07-25T05:07:04.993Z,24.80
2018-07-25T05:08:04.584Z,24.90
2018-07-25T05:09:04.556Z,25.00
2018-07-25T05:10:04.674Z,25.10
2018-07-25T05:11:05.049Z,25.20
2018-07-25T05:12:04.852Z,25.30
2018-07-25T05:13:04.981Z,25.40
2018-07-25T05:14:05.653Z,25.40
2018-07-25T05:15:04.844Z,25.50
2018-07-25T05:16:04.593Z,25.60
2018-07-25T05:17:05.618Z,25.70
2018-07-25T05:18:05.119Z,25.80
2018-07-25T05:19:05.046Z,25.90
2018-07-25T05:20:04.942Z,26.00
2018-07-25T05:21:05.217Z,26.10
2018-07-25T05:22:04.762Z,26.20
2018-07-25T05:23:04.996Z,26.20
2018-07-25T05:24:04.925Z,26.30
2018-07-25T05:25:04.728Z,26.40
2018-07-25T05:26:05.169Z,26.40
2018-07-25T05:27:05.451Z,26.50
2018-07-25T05:28:05.036Z,26.60
2018-07-25T05:29:04.955Z,26.70
2018-07-25T05:30:05.013Z,26.80
2018-07-25T05:31:04.779Z,26.90
2018-07-25T05:32:04.616Z,26.90
2018-07-25T05:33:04.986Z,27.00
2018-07-25T05:34:05.477Z,27.10
2018-07-25T05:35:05.469Z,27.20
2018-07-25T05:36:05.521Z,27.20
2018-07-25T05:37:05.373Z,27.30
2018-07-25T05:38:05.398Z,27.40
2018-07-25T05:39:06.324Z,27.40
2018-07-25T05:40:04.850Z,27.50
2018-07-25T05:41:05.207Z,27.60
2018-07-25T05:42:05.503Z,27.70
2018-07-25T05:43:05.270Z,27.80
2018-07-25T05:44:04.905Z,27.80
2018-07-25T05:45:04.668Z,27.90
2018-07-25T05:46:04.775Z,28.00
2018-07-25T05:47:04.763Z,28.10
2018-07-25T05:48:05.573Z,28.20
2018-07-25T05:49:05.422Z,28.20
2018-07-25T05:50:04.712Z,28.30
2018-07-25T05:51:05.031Z,28.40
2018-07-25T05:52:05.344Z,28.40
2018-07-25T05:53:05.207Z,28.40
2018-07-25T05:54:04.963Z,28.50
2018-07-25T05:55:04.758Z,28.50
2018-07-25T05:56:04.714Z,28.50
2018-07-25T05:57:05.235Z,28.60
2018-07-25T05:58:05.873Z,28.60
2018-07-25T05:59:05.288Z,28.70
2018-07-25T06:00:05.553Z,28.70
2018-07-25T06:01:04.907Z,28.70
2018-07-25T06:02:05.442Z,28.80
2018-07-25T06:03:05.513Z,28.80
2018-07-25T06:04:04.981Z,28.80
2018-07-25T06:05:04.972Z,28.80
2018-07-25T06:06:05.098Z,28.90
2018-07-25T06:07:05.452Z,28.90
2018-07-25T06:08:04.986Z,29.00
2018-07-25T06:09:05.059Z,29.00
2018-07-25T06:10:04.669Z,29.00
2018-07-25T06:11:04.867Z,29.10
2018-07-25T06:12:04.960Z,29.10
2018-07-25T06:13:04.809Z,29.20
2018-07-25T06:14:04.736Z,29.20
2018-07-25T06:15:05.106Z,29.20
2018-07-25T06:16:04.754Z,29.30
2018-07-25T06:17:05.286Z,29.30
2018-07-25T06:18:05.480Z,29.40
2018-07-25T06:19:05.365Z,29.40
2018-07-25T06:20:05.456Z,29.50
2018-07-25T06:21:05.546Z,29.50
2018-07-25T06:22:04.581Z,29.60
2018-07-25T06:23:05.465Z,29.60
2018-07-25T06:24:05.480Z,29.70
2018-07-25T06:25:04.841Z,29.80
2018-07-25T06:26:05.458Z,29.80
2018-07-25T06:27:05.271Z,29.90
2018-07-25T06:28:05.124Z,29.90
2018-07-25T06:29:05.091Z,29.90
2018-07-25T06:30:05.220Z,30.00
2018-07-25T06:31:05.440Z,30.00
2018-07-25T06:32:05.331Z,30.00
2018-07-25T06:33:05.146Z,30.00
2018-07-25T06:34:05.393Z,30.10
2018-07-25T06:35:04.910Z,30.10
2018-07-25T06:36:06.071Z,30.10
2018-07-25T06:37:05.333Z,30.20
2018-07-25T06:38:10.133Z,30.20
2018-07-25T06:39:04.890Z,30.20
2018-07-25T06:40:11.131Z,30.20
2018-07-25T06:41:05.854Z,30.30
2018-07-25T06:42:05.654Z,30.30
2018-07-25T06:43:05.354Z,30.30
2018-07-25T06:44:05.276Z,30.30
2018-07-25T06:45:04.836Z,30.40
2018-07-25T06:46:04.880Z,30.40
2018-07-25T06:47:05.089Z,30.40
2018-07-25T06:48:05.072Z,30.50
2018-07-25T06:49:04.795Z,30.50
2018-07-25T06:50:04.810Z,30.60
2018-07-25T06:51:04.613Z,30.60
2018-07-25T06:52:05.003Z,30.70
2018-07-25T06:53:05.471Z,30.80
2018-07-25T06:54:05.193Z,30.80
2018-07-25T06:55:05.098Z,30.80
2018-07-25T06:56:05.155Z,30.90
2018-07-25T06:57:05.202Z,30.90
2018-07-25T06:58:04.721Z,31.00
2018-07-25T06:59:05.317Z,31.00
2018-07-25T07:00:04.600Z,31.10
2018-07-25T07:01:05.396Z,31.10
2018-07-25T07:02:05.207Z,31.20
2018-07-25T07:03:05.026Z,31.20
2018-07-25T07:04:04.701Z,31.20
2018-07-25T07:05:05.234Z,31.30
2018-07-25T07:06:05.357Z,31.30
2018-07-25T07:07:04.645Z,31.30
2018-07-25T07:08:04.843Z,31.30
2018-07-25T07:09:05.557Z,31.40
2018-07-25T07:10:04.688Z,31.40
2018-07-25T07:11:04.830Z,31.40
2018-07-25T07:12:05.034Z,31.40
2018-07-25T07:13:05.052Z,31.50
2018-07-25T07:14:05.494Z,31.50
2018-07-25T07:15:05.479Z,31.60
2018-07-25T07:16:04.974Z,31.60
2018-07-25T07:17:05.220Z,31.60
2018-07-25T07:18:04.950Z,31.60
2018-07-25T07:19:05.129Z,31.70
2018-07-25T07:20:05.195Z,31.70
2018-07-25T07:21:04.937Z,31.70
2018-07-25T07:22:05.061Z,31.80
2018-07-25T07:23:05.025Z,31.80
2018-07-25T07:24:04.781Z,31.80
2018-07-25T07:25:05.059Z,31.90
2018-07-25T07:26:04.729Z,31.90
2018-07-25T07:27:06.047Z,31.90
2018-07-25T07:28:05.438Z,31.90
2018-07-25T07:29:04.605Z,32.00
2018-07-25T07:30:04.713Z,32.00
2018-07-25T07:31:05.418Z,32.00
2018-07-25T07:32:04.570Z,32.00
2018-07-25T07:33:05.397Z,32.00
2018-07-25T07:34:05.462Z,32.00
2018-07-25T07:35:04.783Z,32.00
2018-07-25T07:36:04.721Z,32.00
2018-07-25T07:37:05.081Z,32.00
2018-07-25T07:38:05.414Z,32.00
2018-07-25T07:39:05.021Z,32.00
2018-07-25T07:40:05.457Z,32.00
2018-07-25T07:41:05.068Z,32.00
2018-07-25T07:42:04.759Z,32.00
2018-07-25T07:43:05.456Z,32.10
2018-07-25T07:44:05.244Z,32.10
2018-07-25T07:45:05.455Z,32.10
2018-07-25T07:46:05.022Z,32.10
2018-07-25T07:47:04.911Z,32.00
2018-07-25T07:48:05.468Z,32.00
2018-07-25T07:49:05.354Z,32.10
2018-07-25T07:50:05.380Z,32.00
2018-07-25T07:51:05.304Z,32.10
2018-07-25T07:52:05.447Z,32.10
2018-07-25T07:53:05.083Z,32.10
2018-07-25T07:54:04.733Z,32.10
2018-07-25T07:55:05.366Z,32.20
2018-07-25T07:56:05.164Z,32.20
2018-07-25T07:57:04.801Z,32.20
2018-07-25T07:58:05.114Z,32.20
2018-07-25T07:59:05.108Z,32.20
2018-07-25T08:00:05.085Z,32.20
2018-07-25T08:01:05.239Z,32.30
2018-07-25T08:02:05.086Z,32.30
2018-07-25T08:03:05.313Z,32.30
2018-07-25T08:04:05.168Z,32.30
2018-07-25T08:05:04.970Z,32.30
2018-07-25T08:06:05.148Z,32.20
2018-07-25T08:07:05.198Z,32.20
2018-07-25T08:08:04.571Z,32.20
2018-07-25T08:09:04.623Z,32.10
2018-07-25T08:10:05.428Z,32.10
2018-07-25T08:11:05.020Z,32.10
2018-07-25T08:12:04.728Z,32.00
2018-07-25T08:13:05.060Z,32.00
2018-07-25T08:14:05.460Z,32.00
2018-07-25T08:15:04.888Z,32.00
2018-07-25T08:16:05.065Z,32.10
2018-07-25T08:17:05.276Z,32.10
2018-07-25T08:18:05.275Z,32.10
2018-07-25T08:19:05.253Z,32.10
2018-07-25T08:20:04.843Z,32.00
2018-07-25T08:21:05.256Z,32.00
2018-07-25T08:22:04.719Z,31.90
2018-07-25T08:23:04.853Z,31.90
2018-07-25T08:24:05.376Z,31.90
2018-07-25T08:25:04.965Z,31.90
2018-07-25T08:26:05.448Z,31.90
2018-07-25T08:27:04.827Z,31.90
2018-07-25T08:28:05.061Z,31.90
2018-07-25T08:29:05.514Z,31.80
2018-07-25T08:30:05.440Z,31.80
2018-07-25T08:31:05.241Z,31.80
2018-07-25T08:32:05.186Z,31.90
2018-07-25T08:33:05.059Z,31.90
2018-07-25T08:34:05.467Z,31.80
2018-07-25T08:35:05.397Z,31.80
2018-07-25T08:36:04.914Z,31.80
2018-07-25T08:37:04.683Z,31.90
2018-07-25T08:38:05.572Z,31.90
2018-07-25T08:39:04.808Z,31.90
2018-07-25T08:40:05.271Z,31.90
2018-07-25T08:41:04.855Z,31.90
2018-07-25T08:42:04.806Z,31.90
2018-07-25T08:43:05.446Z,31.90
2018-07-25T08:44:05.160Z,31.90
2018-07-25T08:45:04.973Z,31.90
2018-07-25T08:46:05.044Z,31.90
2018-07-25T08:47:05.505Z,31.90
2018-07-25T08:48:05.357Z,31.90
2018-07-25T08:49:04.596Z,32.00
2018-07-25T08:50:04.658Z,31.90
2018-07-25T08:51:04.579Z,32.00
2018-07-25T08:52:05.462Z,31.90
2018-07-25T08:53:05.499Z,31.90
2018-07-25T08:54:05.114Z,31.90
2018-07-25T08:55:05.198Z,31.90
2018-07-25T08:56:04.686Z,31.90
2018-07-25T08:57:04.992Z,31.90
2018-07-25T08:58:04.661Z,31.90
2018-07-25T08:59:05.245Z,31.80
2018-07-25T09:00:05.103Z,31.80
2018-07-25T09:01:05.096Z,31.80
2018-07-25T09:02:06.998Z,31.70
2018-07-25T09:03:05.076Z,31.70
2018-07-25T09:04:04.731Z,31.60
2018-07-25T09:05:05.431Z,31.60
2018-07-25T09:06:05.043Z,31.60
2018-07-25T09:07:04.996Z,31.50
2018-07-25T09:08:04.649Z,31.50
2018-07-25T09:09:04.911Z,31.40
2018-07-25T09:10:05.240Z,31.40
2018-07-25T09:11:05.301Z,31.50
2018-07-25T09:12:05.230Z,31.50
2018-07-25T09:13:05.296Z,31.40
2018-07-25T09:14:05.468Z,31.40
2018-07-25T09:15:05.209Z,31.40
2018-07-25T09:16:05.310Z,31.40
2018-07-25T09:17:05.170Z,31.40
2018-07-25T09:18:04.808Z,31.40
2018-07-25T09:19:04.894Z,31.40
2018-07-25T09:20:05.083Z,31.40
2018-07-25T09:21:06.042Z,31.40
2018-07-25T09:22:05.381Z,31.40
2018-07-25T09:23:05.192Z,31.40
2018-07-25T09:24:05.082Z,31.40
2018-07-25T09:25:04.921Z,31.40
2018-07-25T09:26:04.807Z,31.40
2018-07-25T09:27:04.639Z,31.40
2018-07-25T09:28:05.454Z,31.40
2018-07-25T09:29:04.886Z,31.40
2018-07-25T09:30:04.887Z,31.30
2018-07-25T09:31:04.998Z,31.30
2018-07-25T09:32:05.423Z,31.30
2018-07-25T09:33:05.192Z,31.30
2018-07-25T09:34:04.933Z,31.30
2018-07-25T09:35:05.324Z,31.40
2018-07-25T09:36:05.059Z,31.40
2018-07-25T09:37:04.878Z,31.50
2018-07-25T09:38:04.804Z,31.60
2018-07-25T09:39:05.354Z,31.60
2018-07-25T09:40:05.425Z,31.70
2018-07-25T09:41:04.703Z,31.70
2018-07-25T09:42:04.870Z,31.80
2018-07-25T09:43:04.799Z,31.80
2018-07-25T09:44:04.674Z,31.80
2018-07-25T09:45:05.162Z,31.80
2018-07-25T09:46:05.121Z,31.80
2018-07-25T09:47:05.609Z,31.80
2018-07-25T09:48:05.398Z,31.90
2018-07-25T09:49:05.017Z,31.90
2018-07-25T09:50:04.827Z,31.90
2018-07-25T09:51:04.544Z,31.90
2018-07-25T09:52:04.616Z,31.90
2018-07-25T09:53:05.039Z,31.90
2018-07-25T09:54:04.562Z,31.90
2018-07-25T09:55:05.273Z,31.90
2018-07-25T09:56:05.066Z,31.90
2018-07-25T09:57:05.144Z,31.90
2018-07-25T09:58:04.937Z,31.90
2018-07-25T09:59:05.549Z,31.90
2018-07-25T10:00:05.028Z,31.90
2018-07-25T10:01:04.853Z,31.90
2018-07-25T10:02:04.938Z,31.90
2018-07-25T10:03:05.120Z,31.90
2018-07-25T10:04:04.771Z,31.90
2018-07-25T10:05:10.495Z,31.90
2018-07-25T10:06:04.612Z,32.00
2018-07-25T10:07:04.766Z,31.90
2018-07-25T10:08:04.586Z,31.90
2018-07-25T10:09:04.754Z,31.90
2018-07-25T10:10:05.043Z,31.90
2018-07-25T10:11:04.968Z,31.90
2018-07-25T10:12:05.132Z,31.90
2018-07-25T10:13:05.162Z,32.00
2018-07-25T10:14:04.691Z,32.00
2018-07-25T10:15:04.899Z,32.00
2018-07-25T10:16:05.376Z,32.00
2018-07-25T10:17:04.734Z,32.10
2018-07-25T10:18:05.425Z,32.10
2018-07-25T10:19:10.275Z,32.10
2018-07-25T10:20:05.604Z,32.10
2018-07-25T10:21:05.647Z,32.10
2018-07-25T10:22:04.768Z,32.10
2018-07-25T10:23:04.660Z,32.10
2018-07-25T10:24:04.561Z,32.10
2018-07-25T10:25:05.498Z,32.10
2018-07-25T10:26:05.209Z,32.10
2018-07-25T10:27:05.163Z,32.10
2018-07-25T10:28:04.652Z,32.10
2018-07-25T10:29:05.711Z,32.10
2018-07-25T10:30:05.100Z,32.10
2018-07-25T10:31:04.986Z,32.10
2018-07-25T10:32:05.098Z,32.10
2018-07-25T10:33:05.609Z,32.20
2018-07-25T10:34:05.331Z,32.20
2018-07-25T10:35:05.210Z,32.20
2018-07-25T10:36:05.135Z,32.20
2018-07-25T10:37:05.379Z,32.20
2018-07-25T10:38:04.946Z,32.30
2018-07-25T10:39:04.658Z,32.30
2018-07-25T10:40:05.145Z,32.40
2018-07-25T10:41:05.335Z,32.40
2018-07-25T10:42:05.375Z,32.40
2018-07-25T10:43:05.448Z,32.40
2018-07-25T10:44:05.041Z,32.50
2018-07-25T10:45:04.708Z,32.50
2018-07-25T10:46:05.359Z,32.50
2018-07-25T10:47:05.194Z,32.50
2018-07-25T10:48:05.389Z,32.50
2018-07-25T10:49:05.426Z,32.40
2018-07-25T10:50:05.263Z,32.40
2018-07-25T10:51:05.354Z,32.30
2018-07-25T10:52:04.944Z,32.30
2018-07-25T10:53:04.804Z,32.20
2018-07-25T10:54:04.934Z,32.20
2018-07-25T10:55:05.536Z,32.20
2018-07-25T10:56:04.827Z,32.10
2018-07-25T10:57:05.138Z,32.10
2018-07-25T10:58:04.803Z,32.00
2018-07-25T10:59:05.063Z,32.00
2018-07-25T11:00:05.163Z,32.00
2018-07-25T11:01:05.052Z,32.00
2018-07-25T11:02:05.416Z,32.00
2018-07-25T11:03:05.465Z,32.00
2018-07-25T11:04:04.855Z,32.00
2018-07-25T11:05:05.406Z,32.00
2018-07-25T11:06:05.268Z,32.00
2018-07-25T11:07:05.317Z,31.90
2018-07-25T11:08:04.923Z,31.90
2018-07-25T11:09:04.733Z,31.80
2018-07-25T11:10:05.344Z,31.80
2018-07-25T11:11:05.455Z,31.80
2018-07-25T11:12:04.839Z,31.80
2018-07-25T11:13:05.376Z,31.90
2018-07-25T11:14:05.151Z,31.90
2018-07-25T11:15:05.312Z,31.90
2018-07-25T11:16:05.454Z,31.90
2018-07-25T11:17:04.722Z,31.90
2018-07-25T11:18:04.888Z,31.90
2018-07-25T11:19:04.828Z,32.00
2018-07-25T11:20:05.252Z,32.00
2018-07-25T11:21:05.012Z,32.10
2018-07-25T11:22:08.041Z,32.20
2018-07-25T11:23:04.997Z,32.30
2018-07-25T11:24:05.269Z,32.30
2018-07-25T11:25:04.664Z,32.40
2018-07-25T11:26:04.615Z,32.40
2018-07-25T11:27:04.777Z,32.50
2018-07-25T11:28:04.644Z,32.50
2018-07-25T11:29:05.297Z,32.60
2018-07-25T11:30:05.352Z,32.70
2018-07-25T11:31:05.108Z,32.70
2018-07-25T11:32:05.121Z,32.70
2018-07-25T11:33:05.171Z,32.60
2018-07-25T11:34:05.504Z,32.50
2018-07-25T11:35:05.202Z,32.40
2018-07-25T11:36:04.836Z,32.40
2018-07-25T11:37:05.358Z,32.40
2018-07-25T11:38:05.040Z,32.30
2018-07-25T11:39:04.998Z,32.30
2018-07-25T11:40:04.845Z,32.30
2018-07-25T11:41:05.029Z,32.30
2018-07-25T11:42:05.122Z,32.30
2018-07-25T11:43:05.136Z,32.30
2018-07-25T11:44:04.824Z,32.30
2018-07-25T11:45:05.615Z,32.20
2018-07-25T11:46:05.439Z,32.20
2018-07-25T11:47:05.359Z,32.20
2018-07-25T11:48:05.381Z,32.10
2018-07-25T11:49:05.157Z,32.10
2018-07-25T11:50:04.836Z,32.00
2018-07-25T11:51:05.530Z,32.00
2018-07-25T11:52:05.660Z,32.00
2018-07-25T11:53:05.101Z,31.90
2018-07-25T11:54:04.827Z,31.80
2018-07-25T11:55:04.744Z,31.80
2018-07-25T11:56:04.910Z,31.80
2018-07-25T11:57:04.810Z,31.80
2018-07-25T11:58:05.334Z,31.80
2018-07-25T11:59:05.296Z,31.70
2018-07-25T12:00:05.235Z,31.70
2018-07-25T12:01:10.261Z,31.70
2018-07-25T12:02:05.118Z,31.70
2018-07-25T12:03:04.807Z,31.70
2018-07-25T12:04:04.903Z,31.60
2018-07-25T12:05:05.433Z,31.60
2018-07-25T12:06:05.190Z,31.60
2018-07-25T12:07:05.035Z,31.60
2018-07-25T12:08:04.812Z,31.50
2018-07-25T12:09:04.685Z,31.50
2018-07-25T12:10:05.193Z,31.40
2018-07-25T12:11:05.315Z,31.40
2018-07-25T12:12:05.412Z,31.40
2018-07-25T12:13:05.013Z,31.30
2018-07-25T12:14:05.156Z,31.30
2018-07-25T12:15:05.354Z,31.30
2018-07-25T12:16:05.227Z,31.30
2018-07-25T12:17:04.734Z,31.40
2018-07-25T12:18:05.200Z,31.40
2018-07-25T12:19:05.556Z,31.40
2018-07-25T12:20:05.416Z,31.50
2018-07-25T12:21:06.275Z,31.50
2018-07-25T12:22:04.705Z,31.60
2018-07-25T12:23:04.980Z,31.60
2018-07-25T12:24:04.816Z,31.60
2018-07-25T12:25:04.687Z,31.70
2018-07-25T12:26:05.307Z,31.70
2018-07-25T12:27:04.809Z,31.80
2018-07-25T12:28:04.914Z,31.80
2018-07-25T12:29:05.138Z,31.80
2018-07-25T12:30:04.910Z,31.80
2018-07-25T12:31:05.493Z,31.80
2018-07-25T12:32:05.581Z,31.80
2018-07-25T12:33:10.530Z,31.80
2018-07-25T12:34:04.627Z,31.80
2018-07-25T12:35:04.660Z,31.80
2018-07-25T12:36:05.148Z,31.80
2018-07-25T12:37:04.660Z,31.90
2018-07-25T12:38:05.270Z,31.90
2018-07-25T12:39:05.406Z,32.00
2018-07-25T12:40:04.709Z,32.00
2018-07-25T12:41:04.727Z,32.10
2018-07-25T12:42:05.202Z,32.10
2018-07-25T12:43:04.851Z,32.20
2018-07-25T12:44:05.404Z,32.30
2018-07-25T12:45:04.875Z,32.30
2018-07-25T12:46:04.663Z,32.40
2018-07-25T12:47:04.654Z,32.40
2018-07-25T12:48:04.697Z,32.50
2018-07-25T12:49:04.740Z,32.50
2018-07-25T12:50:04.924Z,32.50
2018-07-25T12:51:05.561Z,32.50
2018-07-25T12:52:05.043Z,32.50